KFQD

Rutherford Co - Marchman Field Airport

Rutherfordton, North Carolina, USA
METAR KFQD 201515Z AUTO 00000KT 1/4SM FG OVC003 13/13 A3046 RMK AO2 T01280128
Observed Flight Rules
Feb-20 @ 15:15 UTC (22 hours ago) Instrument Flight Rules
Wind Visibility Clouds Conditions
Calm 1/4 miles
  • Overcast at 300' AGL
  • Fog
Temperatures Readings
Current 13°C / 55°F
Dewpoint 13°C / 55°F
Humidity 100%
Altimeter 30.46" Hg
Pressure 1031 hPa
Elevation 329
METAR KFQD 201515Z AUTO 00000KT 1/4SM FG OVC003 13/13 A3046 RMK AO2 T01280128
Observed Flight Rules
Feb-20 @ 15:15 UTC
(22 hours ago)
LIFR
Wind Visibility
Calm 1/4 miles
Clouds
  • Overcast at 300' AGL
Conditions
  • Fog
Temperature Dewpoint
13°C / 55°F 13°C / 55°F
Humidity Altimeter Pressure
100% 30.46" Hg 1031 hPa